sensor_id;sensor_type;location;lat;lon;timestamp;pressure;altitude;pressure_sealevel;temperature;humidity
55801;BME280;41730;51.960;20.158;2023-03-26T00:00:10;98948.81;;;8.62;71.29
55801;BME280;41730;51.960;20.158;2023-03-26T00:02:40;98955.66;;;8.62;71.43
55801;BME280;41730;51.960;20.158;2023-03-26T00:05:10;98957.37;;;8.66;71.27
55801;BME280;41730;51.960;20.158;2023-03-26T00:07:41;98954.09;;;8.71;70.88
55801;BME280;41730;51.960;20.158;2023-03-26T00:10:11;98955.27;;;8.59;71.29
55801;BME280;41730;51.960;20.158;2023-03-26T00:12:42;98954.30;;;8.63;71.58
55801;BME280;41730;51.960;20.158;2023-03-26T00:15:12;98950.02;;;8.64;71.41
55801;BME280;41730;51.960;20.158;2023-03-26T00:17:41;98949.37;;;8.62;71.39
55801;BME280;41730;51.960;20.158;2023-03-26T00:20:13;98949.70;;;8.60;71.53
55801;BME280;41730;51.960;20.158;2023-03-26T00:22:42;98953.20;;;8.75;71.07
55801;BME280;41730;51.960;20.158;2023-03-26T00:25:12;98947.65;;;8.74;70.80
55801;BME280;41730;51.960;20.158;2023-03-26T00:27:41;98948.23;;;8.70;71.16
55801;BME280;41730;51.960;20.158;2023-03-26T00:30:13;98944.41;;;8.66;71.04
55801;BME280;41730;51.960;20.158;2023-03-26T00:32:42;98941.66;;;8.49;71.55
55801;BME280;41730;51.960;20.158;2023-03-26T00:35:21;98940.27;;;8.53;71.71
55801;BME280;41730;51.960;20.158;2023-03-26T00:37:51;98945.27;;;8.68;71.07
55801;BME280;41730;51.960;20.158;2023-03-26T00:40:20;98942.44;;;8.72;70.86
55801;BME280;41730;51.960;20.158;2023-03-26T00:42:50;98936.11;;;8.72;70.80
55801;BME280;41730;51.960;20.158;2023-03-26T00:45:19;98929.77;;;8.71;70.92
55801;BME280;41730;51.960;20.158;2023-03-26T00:47:49;98927.17;;;8.73;70.96
55801;BME280;41730;51.960;20.158;2023-03-26T00:50:18;98930.67;;;8.66;70.91
55801;BME280;41730;51.960;20.158;2023-03-26T00:52:47;98931.88;;;8.67;70.90
55801;BME280;41730;51.960;20.158;2023-03-26T00:55:16;98932.23;;;8.69;71.27
55801;BME280;41730;51.960;20.158;2023-03-26T00:57:45;98931.94;;;8.70;71.11
55801;BME280;41730;51.960;20.158;2023-03-26T01:00:16;98928.35;;;8.64;70.89
55801;BME280;41730;51.960;20.158;2023-03-26T01:02:46;98923.19;;;8.70;71.15
55801;BME280;41730;51.960;20.158;2023-03-26T01:05:49;98920.22;;;8.84;70.70
55801;BME280;41730;51.960;20.158;2023-03-26T01:08:25;98922.77;;;8.77;71.05
55801;BME280;41730;51.960;20.158;2023-03-26T01:10:57;98920.44;;;8.85;70.88
55801;BME280;41730;51.960;20.158;2023-03-26T01:13:32;98916.73;;;8.85;70.54
55801;BME280;41730;51.960;20.158;2023-03-26T01:16:01;98918.73;;;8.73;71.18
55801;BME280;41730;51.960;20.158;2023-03-26T01:18:32;98916.79;;;8.61;71.49
55801;BME280;41730;51.960;20.158;2023-03-26T01:21:08;98910.72;;;8.59;71.97
55801;BME280;41730;51.960;20.158;2023-03-26T01:23:45;98909.21;;;8.63;71.83
55801;BME280;41730;51.960;20.158;2023-03-26T01:29:19;98899.91;;;8.55;72.00
55801;BME280;41730;51.960;20.158;2023-03-26T01:31:55;98894.64;;;8.44;72.57
55801;BME280;41730;51.960;20.158;2023-03-26T01:34:35;98895.50;;;8.32;72.86
55801;BME280;41730;51.960;20.158;2023-03-26T01:37:13;98898.02;;;8.36;73.02
55801;BME280;41730;51.960;20.158;2023-03-26T01:39:51;98892.38;;;8.27;73.14
55801;BME280;41730;51.960;20.158;2023-03-26T01:42:29;98893.73;;;8.20;73.73
55801;BME280;41730;51.960;20.158;2023-03-26T01:45:08;98890.56;;;8.16;73.69
55801;BME280;41730;51.960;20.158;2023-03-26T01:47:39;98888.71;;;8.10;73.94
55801;BME280;41730;51.960;20.158;2023-03-26T01:50:10;98886.12;;;8.06;74.37
55801;BME280;41730;51.960;20.158;2023-03-26T01:52:39;98885.20;;;8.06;74.43
55801;BME280;41730;51.960;20.158;2023-03-26T01:55:09;98885.61;;;8.00;74.50
55801;BME280;41730;51.960;20.158;2023-03-26T01:57:48;98881.05;;;8.04;74.63
55801;BME280;41730;51.960;20.158;2023-03-26T02:00:26;98877.89;;;8.01;74.69
55801;BME280;41730;51.960;20.158;2023-03-26T02:03:10;98875.90;;;7.92;75.18
55801;BME280;41730;51.960;20.158;2023-03-26T02:05:50;98871.86;;;7.90;74.99
55801;BME280;41730;51.960;20.158;2023-03-26T02:08:23;98866.77;;;7.99;74.92
55801;BME280;41730;51.960;20.158;2023-03-26T02:11:00;98864.67;;;7.98;74.89
55801;BME280;41730;51.960;20.158;2023-03-26T02:13:31;98861.48;;;8.01;74.91
55801;BME280;41730;51.960;20.158;2023-03-26T02:16:02;98855.42;;;8.06;74.75
55801;BME280;41730;51.960;20.158;2023-03-26T02:18:32;98860.22;;;7.96;74.99
55801;BME280;41730;51.960;20.158;2023-03-26T02:21:07;98861.63;;;8.06;74.61
55801;BME280;41730;51.960;20.158;2023-03-26T02:23:39;98862.91;;;8.13;74.16
55801;BME280;41730;51.960;20.158;2023-03-26T02:26:10;98860.99;;;8.09;74.48
55801;BME280;41730;51.960;20.158;2023-03-26T02:28:39;98859.92;;;8.00;74.48
55801;BME280;41730;51.960;20.158;2023-03-26T02:31:08;98857.60;;;7.94;74.78
55801;BME280;41730;51.960;20.158;2023-03-26T02:33:38;98860.70;;;7.92;74.93
55801;BME280;41730;51.960;20.158;2023-03-26T02:36:08;98858.86;;;7.91;75.14
55801;BME280;41730;51.960;20.158;2023-03-26T02:38:38;98855.11;;;7.90;74.75
55801;BME280;41730;51.960;20.158;2023-03-26T02:41:07;98851.29;;;7.88;74.97
55801;BME280;41730;51.960;20.158;2023-03-26T02:43:36;98853.04;;;7.86;74.89
55801;BME280;41730;51.960;20.158;2023-03-26T02:46:05;98852.45;;;7.91;74.81
55801;BME280;41730;51.960;20.158;2023-03-26T02:48:34;98851.48;;;7.86;74.68
55801;BME280;41730;51.960;20.158;2023-03-26T02:51:04;98853.61;;;7.93;74.49
55801;BME280;41730;51.960;20.158;2023-03-26T02:53:33;98852.77;;;7.97;74.25
55801;BME280;41730;51.960;20.158;2023-03-26T02:56:06;98854.07;;;7.90;74.23
55801;BME280;41730;51.960;20.158;2023-03-26T02:58:35;98850.08;;;7.86;74.11
55801;BME280;41730;51.960;20.158;2023-03-26T03:01:04;98852.70;;;7.81;74.07
55801;BME280;41730;51.960;20.158;2023-03-26T03:03:33;98853.15;;;7.74;74.52
55801;BME280;41730;51.960;20.158;2023-03-26T03:06:03;98855.79;;;7.85;74.16
55801;BME280;41730;51.960;20.158;2023-03-26T03:08:32;98853.73;;;7.92;73.71
55801;BME280;41730;51.960;20.158;2023-03-26T03:11:05;98851.70;;;7.78;73.94
55801;BME280;41730;51.960;20.158;2023-03-26T03:13:34;98848.86;;;7.79;74.28
55801;BME280;41730;51.960;20.158;2023-03-26T03:16:04;98851.59;;;7.81;74.12
55801;BME280;41730;51.960;20.158;2023-03-26T03:18:33;98844.91;;;7.76;74.08
55801;BME280;41730;51.960;20.158;2023-03-26T03:21:03;98847.90;;;7.80;74.26
55801;BME280;41730;51.960;20.158;2023-03-26T03:23:32;98846.32;;;7.83;73.70
55801;BME280;41730;51.960;20.158;2023-03-26T03:26:01;98851.61;;;7.83;73.73
55801;BME280;41730;51.960;20.158;2023-03-26T03:28:30;98851.29;;;7.94;73.54
55801;BME280;41730;51.960;20.158;2023-03-26T03:31:10;98851.73;;;7.93;73.61
55801;BME280;41730;51.960;20.158;2023-03-26T03:33:53;98851.09;;;7.96;73.42
55801;BME280;41730;51.960;20.158;2023-03-26T03:36:35;98851.45;;;8.04;73.23
55801;BME280;41730;51.960;20.158;2023-03-26T03:39:20;98850.39;;;8.02;72.83
55801;BME280;41730;51.960;20.158;2023-03-26T03:41:49;98847.05;;;8.02;72.94
55801;BME280;41730;51.960;20.158;2023-03-26T03:44:18;98847.48;;;8.05;73.12
55801;BME280;41730;51.960;20.158;2023-03-26T03:46:47;98849.80;;;8.06;72.98
55801;BME280;41730;51.960;20.158;2023-03-26T03:49:20;98849.21;;;8.00;73.02
55801;BME280;41730;51.960;20.158;2023-03-26T03:51:49;98854.64;;;8.09;72.74
55801;BME280;41730;51.960;20.158;2023-03-26T03:54:18;98855.19;;;8.20;72.49
55801;BME280;41730;51.960;20.158;2023-03-26T03:56:47;98853.11;;;8.32;72.16
55801;BME280;41730;51.960;20.158;2023-03-26T03:59:16;98856.05;;;8.30;72.11
55801;BME280;41730;51.960;20.158;2023-03-26T04:01:45;98852.19;;;8.25;72.15
55801;BME280;41730;51.960;20.158;2023-03-26T04:04:15;98853.94;;;8.32;71.84
55801;BME280;41730;51.960;20.158;2023-03-26T04:06:44;98852.17;;;8.39;71.65
55801;BME280;41730;51.960;20.158;2023-03-26T04:09:13;98856.15;;;8.20;72.02
55801;BME280;41730;51.960;20.158;2023-03-26T04:11:41;98853.17;;;8.09;72.48
55801;BME280;41730;51.960;20.158;2023-03-26T04:14:10;98854.22;;;8.07;72.18
55801;BME280;41730;51.960;20.158;2023-03-26T04:16:39;98852.23;;;8.08;72.56
55801;BME280;41730;51.960;20.158;2023-03-26T04:19:08;98849.38;;;8.11;72.37
55801;BME280;41730;51.960;20.158;2023-03-26T04:21:37;98848.05;;;8.23;72.09
55801;BME280;41730;51.960;20.158;2023-03-26T04:24:06;98838.41;;;8.16;71.94
55801;BME280;41730;51.960;20.158;2023-03-26T04:26:35;98846.70;;;8.08;72.21
55801;BME280;41730;51.960;20.158;2023-03-26T04:29:06;98843.08;;;8.03;72.34
55801;BME280;41730;51.960;20.158;2023-03-26T04:31:39;98842.17;;;8.15;72.26
55801;BME280;41730;51.960;20.158;2023-03-26T04:34:16;98835.92;;;8.20;71.75
55801;BME280;41730;51.960;20.158;2023-03-26T04:36:47;98830.70;;;8.16;71.65
55801;BME280;41730;51.960;20.158;2023-03-26T04:39:17;98831.06;;;8.22;71.78
55801;BME280;41730;51.960;20.158;2023-03-26T04:41:45;98830.44;;;8.19;71.74
55801;BME280;41730;51.960;20.158;2023-03-26T04:44:14;98826.62;;;8.17;71.98
55801;BME280;41730;51.960;20.158;2023-03-26T04:46:44;98829.48;;;8.21;71.44
55801;BME280;41730;51.960;20.158;2023-03-26T04:49:13;98828.95;;;8.29;71.46
55801;BME280;41730;51.960;20.158;2023-03-26T04:51:42;98827.10;;;8.30;71.31
55801;BME280;41730;51.960;20.158;2023-03-26T04:54:13;98828.38;;;8.37;71.15
55801;BME280;41730;51.960;20.158;2023-03-26T04:56:48;98827.45;;;8.34;71.35
55801;BME280;41730;51.960;20.158;2023-03-26T04:59:20;98830.56;;;8.44;71.11
55801;BME280;41730;51.960;20.158;2023-03-26T05:01:53;98830.58;;;8.42;71.19
55801;BME280;41730;51.960;20.158;2023-03-26T05:04:22;98837.73;;;8.47;71.15
55801;BME280;41730;51.960;20.158;2023-03-26T05:06:51;98838.56;;;8.36;71.45
55801;BME280;41730;51.960;20.158;2023-03-26T05:09:20;98848.95;;;8.30;71.55
55801;BME280;41730;51.960;20.158;2023-03-26T05:11:49;98838.63;;;8.23;72.13
55801;BME280;41730;51.960;20.158;2023-03-26T05:14:18;98841.11;;;8.17;72.28
55801;BME280;41730;51.960;20.158;2023-03-26T05:16:48;98836.94;;;8.05;72.62
55801;BME280;41730;51.960;20.158;2023-03-26T05:19:18;98840.13;;;7.94;73.22
55801;BME280;41730;51.960;20.158;2023-03-26T05:21:46;98840.59;;;7.89;73.85
55801;BME280;41730;51.960;20.158;2023-03-26T05:24:15;98842.02;;;7.88;73.68
55801;BME280;41730;51.960;20.158;2023-03-26T05:26:46;98844.68;;;7.88;74.20
55801;BME280;41730;51.960;20.158;2023-03-26T05:29:17;98840.12;;;7.90;74.07
55801;BME280;41730;51.960;20.158;2023-03-26T05:31:47;98835.02;;;7.88;74.29
55801;BME280;41730;51.960;20.158;2023-03-26T05:34:16;98837.23;;;7.86;74.29
55801;BME280;41730;51.960;20.158;2023-03-26T05:36:45;98837.07;;;7.82;74.43
55801;BME280;41730;51.960;20.158;2023-03-26T05:39:15;98830.75;;;7.76;74.87
55801;BME280;41730;51.960;20.158;2023-03-26T05:41:44;98830.47;;;7.68;75.03
55801;BME280;41730;51.960;20.158;2023-03-26T05:44:13;98830.48;;;7.64;75.75
55801;BME280;41730;51.960;20.158;2023-03-26T05:46:41;98829.77;;;7.62;75.68
55801;BME280;41730;51.960;20.158;2023-03-26T05:49:10;98829.40;;;7.63;75.73
55801;BME280;41730;51.960;20.158;2023-03-26T05:51:39;98832.21;;;7.61;76.25
55801;BME280;41730;51.960;20.158;2023-03-26T05:54:08;98830.92;;;7.60;76.37
55801;BME280;41730;51.960;20.158;2023-03-26T05:56:37;98836.59;;;7.55;76.61
55801;BME280;41730;51.960;20.158;2023-03-26T05:59:06;98842.50;;;7.57;76.88
55801;BME280;41730;51.960;20.158;2023-03-26T06:01:35;98840.16;;;7.75;76.49
55801;BME280;41730;51.960;20.158;2023-03-26T06:04:04;98841.39;;;7.87;76.34
55801;BME280;41730;51.960;20.158;2023-03-26T06:06:33;98840.50;;;7.88;76.29
55801;BME280;41730;51.960;20.158;2023-03-26T06:09:01;98840.73;;;7.87;76.62
55801;BME280;41730;51.960;20.158;2023-03-26T06:11:32;98843.66;;;7.94;76.55
55801;BME280;41730;51.960;20.158;2023-03-26T06:14:01;98839.64;;;7.94;76.85
55801;BME280;41730;51.960;20.158;2023-03-26T06:16:30;98841.70;;;8.01;77.14
55801;BME280;41730;51.960;20.158;2023-03-26T06:18:59;98843.23;;;8.00;77.34
55801;BME280;41730;51.960;20.158;2023-03-26T06:21:29;98846.58;;;7.96;77.85
55801;BME280;41730;51.960;20.158;2023-03-26T06:23:58;98849.87;;;8.07;77.92
55801;BME280;41730;51.960;20.158;2023-03-26T06:26:27;98851.69;;;8.40;79.01
55801;BME280;41730;51.960;20.158;2023-03-26T06:28:56;98845.83;;;8.70;79.49
55801;BME280;41730;51.960;20.158;2023-03-26T06:31:25;98851.23;;;8.90;79.39
55801;BME280;41730;51.960;20.158;2023-03-26T06:33:54;98842.52;;;9.08;78.35
55801;BME280;41730;51.960;20.158;2023-03-26T06:36:23;98845.66;;;9.24;77.25
55801;BME280;41730;51.960;20.158;2023-03-26T06:38:52;98845.98;;;9.23;76.24
55801;BME280;41730;51.960;20.158;2023-03-26T06:41:21;98843.98;;;9.18;76.01
55801;BME280;41730;51.960;20.158;2023-03-26T06:43:50;98845.36;;;9.22;75.75
55801;BME280;41730;51.960;20.158;2023-03-26T06:46:19;98846.75;;;9.36;75.49
55801;BME280;41730;51.960;20.158;2023-03-26T06:48:50;98842.76;;;9.32;75.48
55801;BME280;41730;51.960;20.158;2023-03-26T06:51:19;98838.92;;;9.30;75.52
55801;BME280;41730;51.960;20.158;2023-03-26T06:53:48;98837.05;;;9.35;75.28
55801;BME280;41730;51.960;20.158;2023-03-26T06:56:17;98835.08;;;9.60;74.99
55801;BME280;41730;51.960;20.158;2023-03-26T06:58:46;98832.67;;;9.86;74.85
55801;BME280;41730;51.960;20.158;2023-03-26T07:01:15;98836.77;;;9.97;74.91
55801;BME280;41730;51.960;20.158;2023-03-26T07:03:44;98836.17;;;10.10;74.21
55801;BME280;41730;51.960;20.158;2023-03-26T07:06:13;98840.23;;;10.11;73.82
55801;BME280;41730;51.960;20.158;2023-03-26T07:08:42;98839.57;;;10.14;73.53
55801;BME280;41730;51.960;20.158;2023-03-26T07:11:11;98843.08;;;10.21;73.04
55801;BME280;41730;51.960;20.158;2023-03-26T07:13:40;98839.36;;;10.30;72.67
55801;BME280;41730;51.960;20.158;2023-03-26T07:16:09;98836.52;;;10.39;72.41
55801;BME280;41730;51.960;20.158;2023-03-26T07:18:38;98839.34;;;10.54;72.02
55801;BME280;41730;51.960;20.158;2023-03-26T07:21:11;98835.13;;;10.51;71.39
55801;BME280;41730;51.960;20.158;2023-03-26T07:23:41;98840.44;;;10.41;71.47
55801;BME280;41730;51.960;20.158;2023-03-26T07:26:24;98833.09;;;10.38;71.33
55801;BME280;41730;51.960;20.158;2023-03-26T07:29:00;98833.48;;;10.46;71.23
55801;BME280;41730;51.960;20.158;2023-03-26T07:31:40;98834.05;;;10.53;71.16
55801;BME280;41730;51.960;20.158;2023-03-26T07:34:24;98834.56;;;10.61;70.74
55801;BME280;41730;51.960;20.158;2023-03-26T07:37:04;98832.59;;;10.75;70.32
55801;BME280;41730;51.960;20.158;2023-03-26T07:39:45;98838.23;;;10.79;69.63
55801;BME280;41730;51.960;20.158;2023-03-26T07:45:20;98836.53;;;10.74;69.88
55801;BME280;41730;51.960;20.158;2023-03-26T07:47:53;98830.13;;;10.81;69.59
55801;BME280;41730;51.960;20.158;2023-03-26T07:50:25;98832.73;;;10.82;69.55
55801;BME280;41730;51.960;20.158;2023-03-26T07:52:55;98828.04;;;10.86;69.33
55801;BME280;41730;51.960;20.158;2023-03-26T07:55:25;98826.02;;;10.89;68.96
55801;BME280;41730;51.960;20.158;2023-03-26T07:58:07;98833.45;;;10.80;69.04
55801;BME280;41730;51.960;20.158;2023-03-26T08:00:46;98832.86;;;10.77;68.98
55801;BME280;41730;51.960;20.158;2023-03-26T08:03:31;98829.27;;;10.79;68.70
55801;BME280;41730;51.960;20.158;2023-03-26T08:06:12;98826.85;;;10.84;68.62
55801;BME280;41730;51.960;20.158;2023-03-26T08:08:49;98832.02;;;10.90;67.93
55801;BME280;41730;51.960;20.158;2023-03-26T08:11:31;98829.16;;;10.89;67.85
55801;BME280;41730;51.960;20.158;2023-03-26T08:14:10;98825.91;;;10.93;67.44
55801;BME280;41730;51.960;20.158;2023-03-26T08:16:54;98822.73;;;10.97;67.33
55801;BME280;41730;51.960;20.158;2023-03-26T08:19:39;98823.68;;;10.98;67.31
55801;BME280;41730;51.960;20.158;2023-03-26T08:22:14;98824.44;;;10.99;67.25
55801;BME280;41730;51.960;20.158;2023-03-26T08:24:57;98820.09;;;11.07;66.79
55801;BME280;41730;51.960;20.158;2023-03-26T08:27:35;98824.77;;;11.17;66.89
55801;BME280;41730;51.960;20.158;2023-03-26T08:30:10;98821.35;;;11.27;66.58
55801;BME280;41730;51.960;20.158;2023-03-26T08:32:49;98818.05;;;11.39;66.02
55801;BME280;41730;51.960;20.158;2023-03-26T08:35:20;98814.27;;;11.46;65.70
55801;BME280;41730;51.960;20.158;2023-03-26T08:37:50;98820.41;;;11.48;65.62
55801;BME280;41730;51.960;20.158;2023-03-26T08:40:27;98815.29;;;11.58;65.54
55801;BME280;41730;51.960;20.158;2023-03-26T08:43:22;98816.97;;;11.58;64.65
55801;BME280;41730;51.960;20.158;2023-03-26T08:58:38;98821.43;;;11.48;63.93
55801;BME280;41730;51.960;20.158;2023-03-26T09:04:56;98830.52;;;11.31;64.30
55801;BME280;41730;51.960;20.158;2023-03-26T09:10:52;98828.83;;;11.14;65.29
55801;BME280;41730;51.960;20.158;2023-03-26T09:17:08;98825.73;;;11.29;64.76
55801;BME280;41730;51.960;20.158;2023-03-26T09:20:05;98831.91;;;11.29;64.64
55801;BME280;41730;51.960;20.158;2023-03-26T09:23:10;98822.05;;;11.24;64.58
55801;BME280;41730;51.960;20.158;2023-03-26T09:26:04;98823.95;;;11.23;64.21
55801;BME280;41730;51.960;20.158;2023-03-26T09:32:08;98827.00;;;11.32;64.38
55801;BME280;41730;51.960;20.158;2023-03-26T09:35:06;98826.20;;;11.51;64.22
55801;BME280;41730;51.960;20.158;2023-03-26T09:37:55;98826.58;;;11.80;63.85
55801;BME280;41730;51.960;20.158;2023-03-26T09:40:34;98827.79;;;11.93;63.67
55801;BME280;41730;51.960;20.158;2023-03-26T09:43:25;98826.13;;;11.95;63.37
55801;BME280;41730;51.960;20.158;2023-03-26T09:46:06;98829.38;;;12.01;63.20
55801;BME280;41730;51.960;20.158;2023-03-26T09:48:45;98827.19;;;12.03;62.90
55801;BME280;41730;51.960;20.158;2023-03-26T09:57:19;98820.75;;;12.22;61.90
55801;BME280;41730;51.960;20.158;2023-03-26T10:00:03;98818.73;;;12.16;61.73
55801;BME280;41730;51.960;20.158;2023-03-26T10:02:52;98820.25;;;12.07;61.24
55801;BME280;41730;51.960;20.158;2023-03-26T10:05:55;98816.44;;;12.21;61.05
55801;BME280;41730;51.960;20.158;2023-03-26T10:08:43;98817.02;;;12.29;60.69
55801;BME280;41730;51.960;20.158;2023-03-26T10:11:22;98811.28;;;12.34;60.89
55801;BME280;41730;51.960;20.158;2023-03-26T10:14:06;98813.42;;;12.48;60.37
55801;BME280;41730;51.960;20.158;2023-03-26T10:16:51;98807.08;;;12.56;60.34
55801;BME280;41730;51.960;20.158;2023-03-26T10:19:41;98802.47;;;12.81;59.93
55801;BME280;41730;51.960;20.158;2023-03-26T10:22:22;98801.05;;;12.90;59.28
55801;BME280;41730;51.960;20.158;2023-03-26T10:25:13;98803.27;;;12.92;59.11
55801;BME280;41730;51.960;20.158;2023-03-26T10:27:51;98800.55;;;13.04;59.24
55801;BME280;41730;51.960;20.158;2023-03-26T10:30:45;98800.32;;;13.21;59.08
55801;BME280;41730;51.960;20.158;2023-03-26T10:33:24;98799.52;;;13.45;58.50
55801;BME280;41730;51.960;20.158;2023-03-26T10:36:14;98800.52;;;13.56;57.77
55801;BME280;41730;51.960;20.158;2023-03-26T10:39:12;98795.37;;;13.62;57.29
55801;BME280;41730;51.960;20.158;2023-03-26T10:42:12;98799.58;;;13.73;57.19
55801;BME280;41730;51.960;20.158;2023-03-26T10:45:05;98800.87;;;13.72;56.92
55801;BME280;41730;51.960;20.158;2023-03-26T10:47:46;98802.77;;;13.59;57.48
55801;BME280;41730;51.960;20.158;2023-03-26T10:50:31;98797.90;;;13.69;57.24
55801;BME280;41730;51.960;20.158;2023-03-26T10:53:06;98798.66;;;13.83;56.51
55801;BME280;41730;51.960;20.158;2023-03-26T10:55:41;98801.24;;;13.73;56.61
55801;BME280;41730;51.960;20.158;2023-03-26T10:58:17;98795.16;;;13.59;56.74
55801;BME280;41730;51.960;20.158;2023-03-26T11:00:55;98786.72;;;13.49;56.63
55801;BME280;41730;51.960;20.158;2023-03-26T11:03:39;98790.20;;;13.37;56.43
55801;BME280;41730;51.960;20.158;2023-03-26T11:06:18;98788.96;;;13.31;56.65
55801;BME280;41730;51.960;20.158;2023-03-26T11:08:56;98783.59;;;13.24;56.48
55801;BME280;41730;51.960;20.158;2023-03-26T11:11:34;98785.06;;;13.08;56.59
55801;BME280;41730;51.960;20.158;2023-03-26T11:14:14;98786.27;;;12.96;56.87
55801;BME280;41730;51.960;20.158;2023-03-26T11:17:06;98788.04;;;13.06;56.87
55801;BME280;41730;51.960;20.158;2023-03-26T11:20:04;98784.20;;;13.04;56.83
55801;BME280;41730;51.960;20.158;2023-03-26T11:22:41;98785.24;;;13.01;56.45
55801;BME280;41730;51.960;20.158;2023-03-26T11:28:32;98798.83;;;12.88;56.10
55801;BME280;41730;51.960;20.158;2023-03-26T11:31:15;98805.00;;;12.73;56.37
55801;BME280;41730;51.960;20.158;2023-03-26T11:33:50;98814.95;;;12.79;56.72
55801;BME280;41730;51.960;20.158;2023-03-26T11:36:25;98811.86;;;12.75;56.75
55801;BME280;41730;51.960;20.158;2023-03-26T11:38:58;98814.65;;;12.68;56.77
55801;BME280;41730;51.960;20.158;2023-03-26T11:41:30;98814.27;;;12.61;57.01
55801;BME280;41730;51.960;20.158;2023-03-26T11:44:02;98814.99;;;12.49;57.55
55801;BME280;41730;51.960;20.158;2023-03-26T11:46:35;98824.95;;;12.34;58.10
55801;BME280;41730;51.960;20.158;2023-03-26T11:49:09;98820.74;;;12.26;58.11
55801;BME280;41730;51.960;20.158;2023-03-26T11:51:41;98817.92;;;12.30;58.03
55801;BME280;41730;51.960;20.158;2023-03-26T11:54:13;98815.69;;;12.23;58.40
55801;BME280;41730;51.960;20.158;2023-03-26T11:56:45;98808.53;;;12.23;59.14
55801;BME280;41730;51.960;20.158;2023-03-26T11:59:37;98806.89;;;12.31;59.29
55801;BME280;41730;51.960;20.158;2023-03-26T12:02:29;98804.46;;;12.38;58.91
55801;BME280;41730;51.960;20.158;2023-03-26T12:05:12;98805.39;;;12.46;58.71
55801;BME280;41730;51.960;20.158;2023-03-26T12:08:00;98802.27;;;12.38;59.52
55801;BME280;41730;51.960;20.158;2023-03-26T12:10:33;98798.93;;;12.51;59.68
55801;BME280;41730;51.960;20.158;2023-03-26T12:13:05;98798.50;;;12.62;59.02
55801;BME280;41730;51.960;20.158;2023-03-26T12:15:44;98786.88;;;12.71;58.93
55801;BME280;41730;51.960;20.158;2023-03-26T12:18:24;98791.61;;;12.82;58.51
55801;BME280;41730;51.960;20.158;2023-03-26T12:21:05;98793.36;;;13.08;58.36
55801;BME280;41730;51.960;20.158;2023-03-26T12:26:30;98795.63;;;13.31;57.20
55801;BME280;41730;51.960;20.158;2023-03-26T12:29:08;98815.26;;;13.36;56.86
55801;BME280;41730;51.960;20.158;2023-03-26T12:31:53;98825.69;;;13.12;57.27
55801;BME280;41730;51.960;20.158;2023-03-26T12:34:27;98832.14;;;12.66;58.61
55801;BME280;41730;51.960;20.158;2023-03-26T12:36:58;98841.61;;;12.27;59.65
55801;BME280;41730;51.960;20.158;2023-03-26T12:39:38;98832.80;;;11.91;60.78
55801;BME280;41730;51.960;20.158;2023-03-26T12:42:30;98816.41;;;11.52;61.83
55801;BME280;41730;51.960;20.158;2023-03-26T12:45:21;98809.15;;;11.29;62.67
55801;BME280;41730;51.960;20.158;2023-03-26T12:47:52;98808.65;;;11.22;63.23
55801;BME280;41730;51.960;20.158;2023-03-26T12:50:47;98804.34;;;11.13;63.98
55801;BME280;41730;51.960;20.158;2023-03-26T12:53:34;98804.41;;;11.12;64.36
55801;BME280;41730;51.960;20.158;2023-03-26T12:56:14;98804.38;;;11.06;64.80
55801;BME280;41730;51.960;20.158;2023-03-26T12:59:10;98799.58;;;11.07;65.14
55801;BME280;41730;51.960;20.158;2023-03-26T13:01:50;98796.25;;;11.23;65.33
55801;BME280;41730;51.960;20.158;2023-03-26T13:07:49;98792.31;;;11.61;64.78
55801;BME280;41730;51.960;20.158;2023-03-26T13:10:46;98787.24;;;11.75;64.82
55801;BME280;41730;51.960;20.158;2023-03-26T13:13:46;98783.67;;;11.85;64.70
55801;BME280;41730;51.960;20.158;2023-03-26T13:16:26;98779.89;;;11.94;64.48
55801;BME280;41730;51.960;20.158;2023-03-26T13:19:07;98777.52;;;12.17;63.44
55801;BME280;41730;51.960;20.158;2023-03-26T13:21:51;98787.08;;;12.18;63.25
55801;BME280;41730;51.960;20.158;2023-03-26T13:24:33;98785.02;;;12.12;63.44
55801;BME280;41730;51.960;20.158;2023-03-26T13:27:14;98784.41;;;12.15;63.37
55801;BME280;41730;51.960;20.158;2023-03-26T13:29:53;98781.70;;;12.14;63.54
55801;BME280;41730;51.960;20.158;2023-03-26T13:32:32;98777.84;;;12.21;63.26
55801;BME280;41730;51.960;20.158;2023-03-26T13:35:14;98775.91;;;12.19;62.88
55801;BME280;41730;51.960;20.158;2023-03-26T13:37:51;98779.59;;;12.19;62.47
55801;BME280;41730;51.960;20.158;2023-03-26T13:40:28;98779.21;;;12.30;62.50
55801;BME280;41730;51.960;20.158;2023-03-26T13:43:09;98777.77;;;12.47;61.62
55801;BME280;41730;51.960;20.158;2023-03-26T13:45:52;98775.30;;;12.57;61.85
55801;BME280;41730;51.960;20.158;2023-03-26T13:48:26;98774.81;;;12.67;61.30
55801;BME280;41730;51.960;20.158;2023-03-26T13:51:02;98775.11;;;12.69;60.99
55801;BME280;41730;51.960;20.158;2023-03-26T13:53:42;98770.33;;;12.71;61.05
55801;BME280;41730;51.960;20.158;2023-03-26T13:56:15;98767.98;;;12.86;60.55
55801;BME280;41730;51.960;20.158;2023-03-26T13:58:49;98767.63;;;12.73;60.44
55801;BME280;41730;51.960;20.158;2023-03-26T14:01:25;98774.73;;;12.71;60.47
55801;BME280;41730;51.960;20.158;2023-03-26T14:04:06;98768.73;;;12.85;60.01
55801;BME280;41730;51.960;20.158;2023-03-26T14:06:44;98768.19;;;12.87;59.97
55801;BME280;41730;51.960;20.158;2023-03-26T14:09:25;98770.25;;;12.93;59.85
55801;BME280;41730;51.960;20.158;2023-03-26T14:12:13;98765.79;;;12.86;60.13
55801;BME280;41730;51.960;20.158;2023-03-26T14:14:53;98762.44;;;13.02;59.74
55801;BME280;41730;51.960;20.158;2023-03-26T14:17:27;98763.89;;;13.01;59.71
55801;BME280;41730;51.960;20.158;2023-03-26T14:20:27;98760.93;;;13.07;59.71
55801;BME280;41730;51.960;20.158;2023-03-26T14:23:30;98758.59;;;13.08;59.39
55801;BME280;41730;51.960;20.158;2023-03-26T14:26:17;98757.83;;;13.13;59.13